sensor_id;sensor_type;location;lat;lon;timestamp;P1;durP1;ratioP1;P2;durP2;ratioP2
6143;SDS011;3103;49.492;8.474;2023-08-17T00:01:40;3.03;;;2.20;;
6143;SDS011;3103;49.492;8.474;2023-08-17T00:04:07;3.42;;;1.98;;
6143;SDS011;3103;49.492;8.474;2023-08-17T00:06:35;2.90;;;2.00;;
6143;SDS011;3103;49.492;8.474;2023-08-17T00:09:02;2.85;;;1.95;;
6143;SDS011;3103;49.492;8.474;2023-08-17T00:11:30;3.30;;;1.90;;
6143;SDS011;3103;49.492;8.474;2023-08-17T00:13:57;3.30;;;1.90;;
6143;SDS011;3103;49.492;8.474;2023-08-17T00:16:24;3.17;;;1.80;;
6143;SDS011;3103;49.492;8.474;2023-08-17T00:18:51;5.05;;;2.08;;
6143;SDS011;3103;49.492;8.474;2023-08-17T00:21:18;2.67;;;1.95;;
6143;SDS011;3103;49.492;8.474;2023-08-17T00:23:45;4.78;;;1.92;;
6143;SDS011;3103;49.492;8.474;2023-08-17T00:26:12;2.53;;;2.25;;
6143;SDS011;3103;49.492;8.474;2023-08-17T00:28:40;2.95;;;2.10;;
6143;SDS011;3103;49.492;8.474;2023-08-17T00:31:07;2.35;;;1.63;;
6143;SDS011;3103;49.492;8.474;2023-08-17T00:33:34;3.85;;;2.28;;
6143;SDS011;3103;49.492;8.474;2023-08-17T00:36:01;2.47;;;1.60;;
6143;SDS011;3103;49.492;8.474;2023-08-17T00:38:28;3.95;;;2.15;;
6143;SDS011;3103;49.492;8.474;2023-08-17T00:40:54;9.52;;;2.25;;
6143;SDS011;3103;49.492;8.474;2023-08-17T00:43:21;2.58;;;1.90;;
6143;SDS011;3103;49.492;8.474;2023-08-17T00:45:49;3.17;;;2.33;;
6143;SDS011;3103;49.492;8.474;2023-08-17T00:48:16;2.70;;;2.00;;
6143;SDS011;3103;49.492;8.474;2023-08-17T00:50:43;2.58;;;1.77;;
6143;SDS011;3103;49.492;8.474;2023-08-17T00:53:15;1.75;;;1.65;;
6143;SDS011;3103;49.492;8.474;2023-08-17T00:55:43;3.90;;;2.22;;
6143;SDS011;3103;49.492;8.474;2023-08-17T00:58:10;3.78;;;1.83;;
6143;SDS011;3103;49.492;8.474;2023-08-17T01:00:39;2.13;;;1.55;;
6143;SDS011;3103;49.492;8.474;2023-08-17T01:03:07;3.70;;;2.42;;
6143;SDS011;3103;49.492;8.474;2023-08-17T01:05:37;3.05;;;2.33;;
6143;SDS011;3103;49.492;8.474;2023-08-17T01:08:05;3.95;;;2.20;;
6143;SDS011;3103;49.492;8.474;2023-08-17T01:10:44;3.25;;;2.15;;
6143;SDS011;3103;49.492;8.474;2023-08-17T01:13:31;3.40;;;2.22;;
6143;SDS011;3103;49.492;8.474;2023-08-17T01:16:05;3.38;;;2.35;;
6143;SDS011;3103;49.492;8.474;2023-08-17T01:18:37;5.18;;;2.53;;
6143;SDS011;3103;49.492;8.474;2023-08-17T01:21:08;2.80;;;1.77;;
6143;SDS011;3103;49.492;8.474;2023-08-17T01:23:36;3.42;;;2.10;;
6143;SDS011;3103;49.492;8.474;2023-08-17T01:26:03;2.38;;;2.00;;
6143;SDS011;3103;49.492;8.474;2023-08-17T01:28:31;7.43;;;2.20;;
6143;SDS011;3103;49.492;8.474;2023-08-17T01:31:08;2.60;;;1.90;;
6143;SDS011;3103;49.492;8.474;2023-08-17T01:33:40;2.88;;;2.13;;
6143;SDS011;3103;49.492;8.474;2023-08-17T01:38:42;2.65;;;1.70;;
6143;SDS011;3103;49.492;8.474;2023-08-17T01:41:12;4.32;;;2.20;;
6143;SDS011;3103;49.492;8.474;2023-08-17T01:43:42;3.13;;;2.50;;
6143;SDS011;3103;49.492;8.474;2023-08-17T01:46:14;4.18;;;2.10;;
6143;SDS011;3103;49.492;8.474;2023-08-17T01:48:43;4.30;;;2.20;;
6143;SDS011;3103;49.492;8.474;2023-08-17T01:51:10;3.72;;;2.63;;
6143;SDS011;3103;49.492;8.474;2023-08-17T01:53:38;3.60;;;2.22;;
6143;SDS011;3103;49.492;8.474;2023-08-17T01:56:05;5.38;;;2.55;;
6143;SDS011;3103;49.492;8.474;2023-08-17T01:58:32;2.35;;;2.15;;
6143;SDS011;3103;49.492;8.474;2023-08-17T02:00:59;3.08;;;2.20;;
6143;SDS011;3103;49.492;8.474;2023-08-17T02:03:26;2.30;;;2.00;;
6143;SDS011;3103;49.492;8.474;2023-08-17T02:05:56;4.28;;;2.55;;
6143;SDS011;3103;49.492;8.474;2023-08-17T02:08:28;3.40;;;2.13;;
6143;SDS011;3103;49.492;8.474;2023-08-17T02:10:55;5.82;;;2.10;;
6143;SDS011;3103;49.492;8.474;2023-08-17T02:13:22;3.95;;;2.88;;
6143;SDS011;3103;49.492;8.474;2023-08-17T02:15:51;3.92;;;2.60;;
6143;SDS011;3103;49.492;8.474;2023-08-17T02:18:37;5.40;;;2.50;;
6143;SDS011;3103;49.492;8.474;2023-08-17T02:21:04;5.10;;;2.63;;
6143;SDS011;3103;49.492;8.474;2023-08-17T02:23:31;2.72;;;2.45;;
6143;SDS011;3103;49.492;8.474;2023-08-17T02:25:58;4.05;;;2.53;;
6143;SDS011;3103;49.492;8.474;2023-08-17T02:28:24;5.57;;;2.83;;
6143;SDS011;3103;49.492;8.474;2023-08-17T02:30:55;3.80;;;2.45;;
6143;SDS011;3103;49.492;8.474;2023-08-17T02:33:23;3.97;;;2.30;;
6143;SDS011;3103;49.492;8.474;2023-08-17T02:35:51;3.35;;;2.83;;
6143;SDS011;3103;49.492;8.474;2023-08-17T02:38:18;4.30;;;2.70;;
6143;SDS011;3103;49.492;8.474;2023-08-17T02:40:45;6.85;;;2.75;;
6143;SDS011;3103;49.492;8.474;2023-08-17T02:43:12;2.95;;;2.45;;
6143;SDS011;3103;49.492;8.474;2023-08-17T02:45:39;3.22;;;2.35;;
6143;SDS011;3103;49.492;8.474;2023-08-17T02:48:06;7.85;;;2.90;;
6143;SDS011;3103;49.492;8.474;2023-08-17T02:50:33;2.50;;;2.28;;
6143;SDS011;3103;49.492;8.474;2023-08-17T02:53:00;4.07;;;2.63;;
6143;SDS011;3103;49.492;8.474;2023-08-17T02:55:28;6.63;;;3.03;;
6143;SDS011;3103;49.492;8.474;2023-08-17T02:57:55;4.90;;;3.15;;
6143;SDS011;3103;49.492;8.474;2023-08-17T03:00:22;6.88;;;3.55;;
6143;SDS011;3103;49.492;8.474;2023-08-17T03:02:49;4.97;;;2.92;;
6143;SDS011;3103;49.492;8.474;2023-08-17T03:05:16;5.50;;;2.90;;
6143;SDS011;3103;49.492;8.474;2023-08-17T03:07:43;8.10;;;3.20;;
6143;SDS011;3103;49.492;8.474;2023-08-17T03:10:10;6.55;;;3.35;;
6143;SDS011;3103;49.492;8.474;2023-08-17T03:12:38;5.57;;;3.20;;
6143;SDS011;3103;49.492;8.474;2023-08-17T03:15:05;7.47;;;3.33;;
6143;SDS011;3103;49.492;8.474;2023-08-17T03:17:34;3.58;;;3.28;;
6143;SDS011;3103;49.492;8.474;2023-08-17T03:20:02;3.90;;;3.00;;
6143;SDS011;3103;49.492;8.474;2023-08-17T03:22:32;5.22;;;3.28;;
6143;SDS011;3103;49.492;8.474;2023-08-17T03:25:00;5.25;;;3.42;;
6143;SDS011;3103;49.492;8.474;2023-08-17T03:27:31;3.90;;;2.90;;
6143;SDS011;3103;49.492;8.474;2023-08-17T03:29:59;3.55;;;2.53;;
6143;SDS011;3103;49.492;8.474;2023-08-17T03:32:26;4.63;;;3.13;;
6143;SDS011;3103;49.492;8.474;2023-08-17T03:34:53;7.47;;;3.13;;
6143;SDS011;3103;49.492;8.474;2023-08-17T03:37:21;5.57;;;3.63;;
6143;SDS011;3103;49.492;8.474;2023-08-17T03:39:48;4.03;;;3.03;;
6143;SDS011;3103;49.492;8.474;2023-08-17T03:42:15;5.05;;;3.10;;
6143;SDS011;3103;49.492;8.474;2023-08-17T03:44:42;3.85;;;3.03;;
6143;SDS011;3103;49.492;8.474;2023-08-17T03:47:10;3.42;;;3.13;;
6143;SDS011;3103;49.492;8.474;2023-08-17T03:49:38;4.40;;;3.38;;
6143;SDS011;3103;49.492;8.474;2023-08-17T03:52:05;4.88;;;3.50;;
6143;SDS011;3103;49.492;8.474;2023-08-17T03:54:32;7.85;;;4.30;;
6143;SDS011;3103;49.492;8.474;2023-08-17T03:56:59;7.43;;;4.60;;
6143;SDS011;3103;49.492;8.474;2023-08-17T03:59:26;8.55;;;4.95;;
6143;SDS011;3103;49.492;8.474;2023-08-17T04:01:53;6.68;;;5.25;;
6143;SDS011;3103;49.492;8.474;2023-08-17T04:04:20;13.40;;;6.78;;
6143;SDS011;3103;49.492;8.474;2023-08-17T04:06:47;10.50;;;6.35;;
6143;SDS011;3103;49.492;8.474;2023-08-17T04:09:14;11.60;;;7.10;;
6143;SDS011;3103;49.492;8.474;2023-08-17T04:11:41;14.52;;;8.00;;
6143;SDS011;3103;49.492;8.474;2023-08-17T04:14:07;11.52;;;7.68;;
6143;SDS011;3103;49.492;8.474;2023-08-17T04:16:35;12.20;;;7.60;;
6143;SDS011;3103;49.492;8.474;2023-08-17T04:19:02;10.93;;;6.22;;
6143;SDS011;3103;49.492;8.474;2023-08-17T04:21:29;6.82;;;5.63;;
6143;SDS011;3103;49.492;8.474;2023-08-17T04:23:57;7.18;;;5.13;;
6143;SDS011;3103;49.492;8.474;2023-08-17T04:26:23;7.65;;;5.88;;
6143;SDS011;3103;49.492;8.474;2023-08-17T04:28:51;6.85;;;5.20;;
6143;SDS011;3103;49.492;8.474;2023-08-17T04:31:18;7.95;;;5.47;;
6143;SDS011;3103;49.492;8.474;2023-08-17T04:33:52;9.50;;;6.30;;
6143;SDS011;3103;49.492;8.474;2023-08-17T04:36:19;9.52;;;6.63;;
6143;SDS011;3103;49.492;8.474;2023-08-17T04:38:46;11.00;;;6.82;;
6143;SDS011;3103;49.492;8.474;2023-08-17T04:41:13;11.70;;;7.30;;
6143;SDS011;3103;49.492;8.474;2023-08-17T04:43:40;12.73;;;7.22;;
6143;SDS011;3103;49.492;8.474;2023-08-17T04:46:07;12.07;;;7.20;;
6143;SDS011;3103;49.492;8.474;2023-08-17T04:48:34;10.95;;;6.60;;
6143;SDS011;3103;49.492;8.474;2023-08-17T04:51:01;13.30;;;8.27;;
6143;SDS011;3103;49.492;8.474;2023-08-17T04:53:29;12.77;;;7.55;;
6143;SDS011;3103;49.492;8.474;2023-08-17T04:55:56;12.63;;;8.13;;
6143;SDS011;3103;49.492;8.474;2023-08-17T04:58:23;14.48;;;8.77;;
6143;SDS011;3103;49.492;8.474;2023-08-17T05:00:50;12.95;;;7.90;;
6143;SDS011;3103;49.492;8.474;2023-08-17T05:03:17;14.93;;;8.00;;
6143;SDS011;3103;49.492;8.474;2023-08-17T05:06:00;13.07;;;8.38;;
6143;SDS011;3103;49.492;8.474;2023-08-17T05:08:27;13.00;;;7.93;;
6143;SDS011;3103;49.492;8.474;2023-08-17T05:10:55;18.00;;;9.80;;
6143;SDS011;3103;49.492;8.474;2023-08-17T05:13:23;13.85;;;8.30;;
6143;SDS011;3103;49.492;8.474;2023-08-17T05:15:51;14.35;;;8.50;;
6143;SDS011;3103;49.492;8.474;2023-08-17T05:18:19;16.23;;;8.93;;
6143;SDS011;3103;49.492;8.474;2023-08-17T05:20:46;16.17;;;8.23;;
6143;SDS011;3103;49.492;8.474;2023-08-17T05:23:13;17.20;;;8.40;;
6143;SDS011;3103;49.492;8.474;2023-08-17T05:25:40;15.93;;;8.63;;
6143;SDS011;3103;49.492;8.474;2023-08-17T05:28:07;13.27;;;8.50;;
6143;SDS011;3103;49.492;8.474;2023-08-17T05:30:34;16.48;;;9.18;;
6143;SDS011;3103;49.492;8.474;2023-08-17T05:33:01;14.85;;;9.48;;
6143;SDS011;3103;49.492;8.474;2023-08-17T05:35:28;19.20;;;10.48;;
6143;SDS011;3103;49.492;8.474;2023-08-17T05:37:55;16.35;;;10.52;;
6143;SDS011;3103;49.492;8.474;2023-08-17T05:40:22;19.38;;;10.10;;
6143;SDS011;3103;49.492;8.474;2023-08-17T05:42:49;21.45;;;11.00;;
6143;SDS011;3103;49.492;8.474;2023-08-17T05:45:16;21.35;;;11.00;;
6143;SDS011;3103;49.492;8.474;2023-08-17T05:47:45;16.08;;;10.07;;
6143;SDS011;3103;49.492;8.474;2023-08-17T05:50:12;17.10;;;9.38;;
6143;SDS011;3103;49.492;8.474;2023-08-17T05:52:40;15.77;;;9.60;;
6143;SDS011;3103;49.492;8.474;2023-08-17T05:55:07;15.77;;;8.57;;
6143;SDS011;3103;49.492;8.474;2023-08-17T05:57:34;18.50;;;9.27;;
6143;SDS011;3103;49.492;8.474;2023-08-17T06:00:01;15.80;;;8.32;;
6143;SDS011;3103;49.492;8.474;2023-08-17T06:02:38;19.23;;;9.45;;
6143;SDS011;3103;49.492;8.474;2023-08-17T06:05:06;18.90;;;9.00;;
6143;SDS011;3103;49.492;8.474;2023-08-17T06:07:35;18.80;;;9.40;;
6143;SDS011;3103;49.492;8.474;2023-08-17T06:10:03;13.80;;;7.63;;
6143;SDS011;3103;49.492;8.474;2023-08-17T06:12:30;15.77;;;8.48;;
6143;SDS011;3103;49.492;8.474;2023-08-17T06:14:57;14.20;;;7.45;;
6143;SDS011;3103;49.492;8.474;2023-08-17T06:17:24;16.33;;;8.70;;
6143;SDS011;3103;49.492;8.474;2023-08-17T06:19:52;15.40;;;7.78;;
6143;SDS011;3103;49.492;8.474;2023-08-17T06:22:18;14.43;;;7.60;;
6143;SDS011;3103;49.492;8.474;2023-08-17T06:24:45;10.98;;;6.80;;
6143;SDS011;3103;49.492;8.474;2023-08-17T06:27:15;10.32;;;6.10;;
6143;SDS011;3103;49.492;8.474;2023-08-17T06:29:42;11.05;;;7.07;;
6143;SDS011;3103;49.492;8.474;2023-08-17T06:32:10;11.45;;;6.72;;
6143;SDS011;3103;49.492;8.474;2023-08-17T06:34:37;9.27;;;6.10;;
6143;SDS011;3103;49.492;8.474;2023-08-17T06:37:04;18.90;;;6.70;;
6143;SDS011;3103;49.492;8.474;2023-08-17T06:39:32;10.70;;;6.72;;
6143;SDS011;3103;49.492;8.474;2023-08-17T06:41:59;12.05;;;6.10;;
6143;SDS011;3103;49.492;8.474;2023-08-17T06:44:27;9.02;;;6.03;;
6143;SDS011;3103;49.492;8.474;2023-08-17T06:46:55;8.25;;;5.50;;
6143;SDS011;3103;49.492;8.474;2023-08-17T06:49:23;7.05;;;5.43;;
6143;SDS011;3103;49.492;8.474;2023-08-17T06:51:50;7.80;;;4.88;;
6143;SDS011;3103;49.492;8.474;2023-08-17T06:54:17;9.40;;;5.88;;
6143;SDS011;3103;49.492;8.474;2023-08-17T06:56:44;14.20;;;7.13;;
6143;SDS011;3103;49.492;8.474;2023-08-17T06:59:10;12.20;;;7.00;;
6143;SDS011;3103;49.492;8.474;2023-08-17T07:01:37;15.05;;;7.78;;
6143;SDS011;3103;49.492;8.474;2023-08-17T07:04:04;15.88;;;7.88;;
6143;SDS011;3103;49.492;8.474;2023-08-17T07:06:31;18.00;;;7.60;;
6143;SDS011;3103;49.492;8.474;2023-08-17T07:08:59;12.10;;;7.28;;
6143;SDS011;3103;49.492;8.474;2023-08-17T07:11:25;12.27;;;6.13;;
6143;SDS011;3103;49.492;8.474;2023-08-17T07:13:55;14.82;;;7.20;;
6143;SDS011;3103;49.492;8.474;2023-08-17T07:16:22;12.02;;;5.63;;
6143;SDS011;3103;49.492;8.474;2023-08-17T07:18:50;17.42;;;6.50;;
6143;SDS011;3103;49.492;8.474;2023-08-17T07:21:17;15.68;;;6.68;;
6143;SDS011;3103;49.492;8.474;2023-08-17T07:23:44;11.77;;;6.63;;
6143;SDS011;3103;49.492;8.474;2023-08-17T07:26:11;9.00;;;6.03;;
6143;SDS011;3103;49.492;8.474;2023-08-17T07:28:39;11.45;;;5.95;;
6143;SDS011;3103;49.492;8.474;2023-08-17T07:31:06;8.77;;;5.90;;
6143;SDS011;3103;49.492;8.474;2023-08-17T07:33:32;10.40;;;5.63;;
6143;SDS011;3103;49.492;8.474;2023-08-17T07:35:59;14.10;;;7.63;;
6143;SDS011;3103;49.492;8.474;2023-08-17T07:38:27;17.73;;;7.68;;
6143;SDS011;3103;49.492;8.474;2023-08-17T07:40:54;10.32;;;6.55;;
6143;SDS011;3103;49.492;8.474;2023-08-17T07:43:21;10.10;;;6.20;;
6143;SDS011;3103;49.492;8.474;2023-08-17T07:45:55;10.88;;;7.00;;
6143;SDS011;3103;49.492;8.474;2023-08-17T07:48:23;9.25;;;6.38;;
6143;SDS011;3103;49.492;8.474;2023-08-17T07:50:50;12.07;;;6.93;;
6143;SDS011;3103;49.492;8.474;2023-08-17T07:53:18;17.67;;;7.07;;
6143;SDS011;3103;49.492;8.474;2023-08-17T07:55:46;13.82;;;6.93;;
6143;SDS011;3103;49.492;8.474;2023-08-17T07:58:14;12.52;;;5.55;;
6143;SDS011;3103;49.492;8.474;2023-08-17T08:00:41;9.73;;;5.35;;
6143;SDS011;3103;49.492;8.474;2023-08-17T08:03:08;11.48;;;6.20;;
6143;SDS011;3103;49.492;8.474;2023-08-17T08:05:35;13.65;;;7.60;;
6143;SDS011;3103;49.492;8.474;2023-08-17T08:08:03;14.40;;;7.45;;
6143;SDS011;3103;49.492;8.474;2023-08-17T08:10:30;16.85;;;7.88;;
6143;SDS011;3103;49.492;8.474;2023-08-17T08:12:57;8.05;;;5.90;;
6143;SDS011;3103;49.492;8.474;2023-08-17T08:15:24;11.65;;;5.72;;
6143;SDS011;3103;49.492;8.474;2023-08-17T08:17:51;9.02;;;6.57;;
6143;SDS011;3103;49.492;8.474;2023-08-17T08:20:18;6.32;;;4.90;;
6143;SDS011;3103;49.492;8.474;2023-08-17T08:22:44;8.85;;;5.55;;
6143;SDS011;3103;49.492;8.474;2023-08-17T08:25:11;10.48;;;6.22;;
6143;SDS011;3103;49.492;8.474;2023-08-17T08:27:38;11.77;;;5.03;;
6143;SDS011;3103;49.492;8.474;2023-08-17T08:30:06;11.18;;;5.93;;
6143;SDS011;3103;49.492;8.474;2023-08-17T08:32:34;9.18;;;5.30;;
6143;SDS011;3103;49.492;8.474;2023-08-17T08:35:02;6.18;;;4.88;;
6143;SDS011;3103;49.492;8.474;2023-08-17T08:37:29;11.55;;;5.72;;
6143;SDS011;3103;49.492;8.474;2023-08-17T08:39:57;15.63;;;7.07;;
6143;SDS011;3103;49.492;8.474;2023-08-17T08:42:23;14.07;;;7.32;;
6143;SDS011;3103;49.492;8.474;2023-08-17T08:44:51;21.08;;;7.30;;
6143;SDS011;3103;49.492;8.474;2023-08-17T08:47:18;14.07;;;8.48;;
6143;SDS011;3103;49.492;8.474;2023-08-17T08:50:01;8.52;;;6.78;;
6143;SDS011;3103;49.492;8.474;2023-08-17T08:53:17;8.65;;;6.15;;
6143;SDS011;3103;49.492;8.474;2023-08-17T08:55:29;10.77;;;5.82;;
6143;SDS011;3103;49.492;8.474;2023-08-17T08:57:59;22.02;;;6.57;;
6143;SDS011;3103;49.492;8.474;2023-08-17T09:00:27;6.43;;;5.43;;
6143;SDS011;3103;49.492;8.474;2023-08-17T09:02:54;11.65;;;6.15;;
6143;SDS011;3103;49.492;8.474;2023-08-17T09:05:22;8.43;;;6.28;;
6143;SDS011;3103;49.492;8.474;2023-08-17T09:07:50;8.38;;;5.65;;
6143;SDS011;3103;49.492;8.474;2023-08-17T09:10:19;7.05;;;6.00;;
6143;SDS011;3103;49.492;8.474;2023-08-17T09:12:46;9.88;;;5.53;;
6143;SDS011;3103;49.492;8.474;2023-08-17T09:15:16;10.52;;;5.60;;
6143;SDS011;3103;49.492;8.474;2023-08-17T09:17:43;10.90;;;6.00;;
6143;SDS011;3103;49.492;8.474;2023-08-17T09:20:11;8.27;;;6.20;;
6143;SDS011;3103;49.492;8.474;2023-08-17T09:22:39;12.68;;;7.38;;
6143;SDS011;3103;49.492;8.474;2023-08-17T09:25:08;13.07;;;7.65;;
6143;SDS011;3103;49.492;8.474;2023-08-17T09:27:37;17.13;;;6.05;;
6143;SDS011;3103;49.492;8.474;2023-08-17T09:30:05;11.27;;;6.47;;
6143;SDS011;3103;49.492;8.474;2023-08-17T09:32:33;12.32;;;5.75;;
6143;SDS011;3103;49.492;8.474;2023-08-17T09:35:01;9.20;;;6.25;;
6143;SDS011;3103;49.492;8.474;2023-08-17T09:37:30;9.63;;;5.43;;
6143;SDS011;3103;49.492;8.474;2023-08-17T09:39:57;9.73;;;5.90;;
6143;SDS011;3103;49.492;8.474;2023-08-17T09:42:24;9.90;;;5.65;;
6143;SDS011;3103;49.492;8.474;2023-08-17T09:44:52;10.73;;;6.68;;
6143;SDS011;3103;49.492;8.474;2023-08-17T09:47:22;8.23;;;5.95;;
6143;SDS011;3103;49.492;8.474;2023-08-17T09:49:50;10.95;;;6.25;;
6143;SDS011;3103;49.492;8.474;2023-08-17T09:52:19;8.80;;;5.25;;
6143;SDS011;3103;49.492;8.474;2023-08-17T09:54:47;7.60;;;5.13;;
6143;SDS011;3103;49.492;8.474;2023-08-17T09:57:15;7.80;;;4.90;;
6143;SDS011;3103;49.492;8.474;2023-08-17T09:59:48;7.75;;;5.00;;
6143;SDS011;3103;49.492;8.474;2023-08-17T10:02:22;12.13;;;5.10;;
6143;SDS011;3103;49.492;8.474;2023-08-17T10:04:54;4.85;;;4.05;;
6143;SDS011;3103;49.492;8.474;2023-08-17T10:07:27;10.73;;;5.20;;
6143;SDS011;3103;49.492;8.474;2023-08-17T10:10:02;11.60;;;5.10;;
6143;SDS011;3103;49.492;8.474;2023-08-17T10:12:37;6.43;;;4.00;;
6143;SDS011;3103;49.492;8.474;2023-08-17T10:15:10;10.63;;;4.88;;
6143;SDS011;3103;49.492;8.474;2023-08-17T10:17:50;11.43;;;5.00;;
6143;SDS011;3103;49.492;8.474;2023-08-17T10:20:42;8.13;;;4.32;;
6143;SDS011;3103;49.492;8.474;2023-08-17T10:23:17;6.05;;;4.57;;
6143;SDS011;3103;49.492;8.474;2023-08-17T10:25:45;9.05;;;4.45;;
6143;SDS011;3103;49.492;8.474;2023-08-17T10:28:17;8.32;;;5.25;;
6143;SDS011;3103;49.492;8.474;2023-08-17T10:30:44;11.00;;;4.45;;
6143;SDS011;3103;49.492;8.474;2023-08-17T10:33:12;5.82;;;4.38;;
6143;SDS011;3103;49.492;8.474;2023-08-17T10:35:39;6.82;;;4.53;;
6143;SDS011;3103;49.492;8.474;2023-08-17T10:38:06;6.00;;;3.95;;
6143;SDS011;3103;49.492;8.474;2023-08-17T10:40:41;10.77;;;4.82;;
6143;SDS011;3103;49.492;8.474;2023-08-17T10:43:09;10.02;;;5.43;;
6143;SDS011;3103;49.492;8.474;2023-08-17T10:45:38;10.75;;;4.90;;
6143;SDS011;3103;49.492;8.474;2023-08-17T10:50:36;7.40;;;4.25;;
6143;SDS011;3103;49.492;8.474;2023-08-17T10:53:10;12.35;;;4.30;;
6143;SDS011;3103;49.492;8.474;2023-08-17T10:55:39;9.63;;;4.13;;
6143;SDS011;3103;49.492;8.474;2023-08-17T10:58:18;5.70;;;3.88;;
6143;SDS011;3103;49.492;8.474;2023-08-17T11:00:45;4.43;;;3.60;;
6143;SDS011;3103;49.492;8.474;2023-08-17T11:03:17;5.10;;;3.60;;
6143;SDS011;3103;49.492;8.474;2023-08-17T11:05:51;6.07;;;3.80;;
6143;SDS011;3103;49.492;8.474;2023-08-17T11:08:27;7.20;;;3.22;;
6143;SDS011;3103;49.492;8.474;2023-08-17T11:13:36;10.27;;;3.28;;
6143;SDS011;3103;49.492;8.474;2023-08-17T11:16:05;8.23;;;3.53;;
6143;SDS011;3103;49.492;8.474;2023-08-17T11:18:33;7.32;;;4.18;;
6143;SDS011;3103;49.492;8.474;2023-08-17T11:21:04;6.28;;;3.95;;
6143;SDS011;3103;49.492;8.474;2023-08-17T11:23:34;6.43;;;3.00;;
6143;SDS011;3103;49.492;8.474;2023-08-17T11:26:03;5.78;;;3.90;;
6143;SDS011;3103;49.492;8.474;2023-08-17T11:28:30;6.55;;;3.20;;
6143;SDS011;3103;49.492;8.474;2023-08-17T11:31:10;6.00;;;4.43;;
6143;SDS011;3103;49.492;8.474;2023-08-17T11:33:39;6.20;;;3.58;;
6143;SDS011;3103;49.492;8.474;2023-08-17T11:36:07;4.93;;;3.53;;
6143;SDS011;3103;49.492;8.474;2023-08-17T11:38:36;9.35;;;4.25;;
6143;SDS011;3103;49.492;8.474;2023-08-17T11:41:04;13.15;;;3.67;;
6143;SDS011;3103;49.492;8.474;2023-08-17T11:43:33;7.85;;;3.40;;
6143;SDS011;3103;49.492;8.474;2023-08-17T11:46:00;5.68;;;4.10;;
6143;SDS011;3103;49.492;8.474;2023-08-17T11:48:28;7.03;;;4.35;;
6143;SDS011;3103;49.492;8.474;2023-08-17T11:51:01;8.18;;;3.85;;
6143;SDS011;3103;49.492;8.474;2023-08-17T11:53:37;5.40;;;3.55;;
6143;SDS011;3103;49.492;8.474;2023-08-17T11:56:07;5.25;;;3.28;;
6143;SDS011;3103;49.492;8.474;2023-08-17T11:58:43;12.57;;;4.30;;
6143;SDS011;3103;49.492;8.474;2023-08-17T12:01:12;5.68;;;3.13;;
6143;SDS011;3103;49.492;8.474;2023-08-17T12:03:43;4.40;;;3.30;;
6143;SDS011;3103;49.492;8.474;2023-08-17T12:06:11;3.72;;;2.70;;
6143;SDS011;3103;49.492;8.474;2023-08-17T12:08:45;3.50;;;2.85;;
6143;SDS011;3103;49.492;8.474;2023-08-17T12:11:15;9.10;;;3.10;;
6143;SDS011;3103;49.492;8.474;2023-08-17T12:13:43;8.98;;;4.18;;
6143;SDS011;3103;49.492;8.474;2023-08-17T12:16:16;11.57;;;3.72;;
6143;SDS011;3103;49.492;8.474;2023-08-17T12:18:45;3.88;;;3.50;;
6143;SDS011;3103;49.492;8.474;2023-08-17T12:21:14;5.15;;;3.97;;
6143;SDS011;3103;49.492;8.474;2023-08-17T12:23:41;4.70;;;4.25;;
6143;SDS011;3103;49.492;8.474;2023-08-17T12:26:17;6.65;;;3.78;;
6143;SDS011;3103;49.492;8.474;2023-08-17T12:28:45;4.90;;;3.50;;
6143;SDS011;3103;49.492;8.474;2023-08-17T12:31:12;7.00;;;4.43;;
6143;SDS011;3103;49.492;8.474;2023-08-17T12:33:39;5.00;;;4.50;;
6143;SDS011;3103;49.492;8.474;2023-08-17T12:36:06;5.07;;;4.25;;
6143;SDS011;3103;49.492;8.474;2023-08-17T12:38:33;6.07;;;4.00;;
6143;SDS011;3103;49.492;8.474;2023-08-17T12:41:00;5.00;;;4.43;;
6143;SDS011;3103;49.492;8.474;2023-08-17T12:43:32;9.50;;;5.28;;
6143;SDS011;3103;49.492;8.474;2023-08-17T12:45:59;6.70;;;5.75;;
6143;SDS011;3103;49.492;8.474;2023-08-17T12:48:26;6.88;;;4.55;;
6143;SDS011;3103;49.492;8.474;2023-08-17T12:50:53;5.25;;;4.00;;
6143;SDS011;3103;49.492;8.474;2023-08-17T12:53:20;3.72;;;3.35;;
6143;SDS011;3103;49.492;8.474;2023-08-17T12:55:47;10.10;;;4.85;;
6143;SDS011;3103;49.492;8.474;2023-08-17T12:58:13;4.28;;;3.88;;
6143;SDS011;3103;49.492;8.474;2023-08-17T13:00:40;6.55;;;3.78;;
6143;SDS011;3103;49.492;8.474;2023-08-17T13:03:07;8.95;;;5.10;;
6143;SDS011;3103;49.492;8.474;2023-08-17T13:05:36;9.60;;;5.18;;
6143;SDS011;3103;49.492;8.474;2023-08-17T13:08:03;11.77;;;5.68;;
6143;SDS011;3103;49.492;8.474;2023-08-17T13:10:30;10.50;;;4.70;;
6143;SDS011;3103;49.492;8.474;2023-08-17T13:12:57;6.82;;;4.32;;
6143;SDS011;3103;49.492;8.474;2023-08-17T13:15:26;5.45;;;3.38;;
6143;SDS011;3103;49.492;8.474;2023-08-17T13:17:53;5.55;;;2.83;;
6143;SDS011;3103;49.492;8.474;2023-08-17T13:20:20;5.80;;;3.42;;
6143;SDS011;3103;49.492;8.474;2023-08-17T13:22:48;5.57;;;2.92;;
6143;SDS011;3103;49.492;8.474;2023-08-17T13:25:15;7.22;;;3.00;;
6143;SDS011;3103;49.492;8.474;2023-08-17T13:27:42;5.55;;;3.15;;
6143;SDS011;3103;49.492;8.474;2023-08-17T13:30:09;2.55;;;2.35;;
6143;SDS011;3103;49.492;8.474;2023-08-17T13:32:36;3.50;;;2.70;;
6143;SDS011;3103;49.492;8.474;2023-08-17T13:35:03;3.05;;;2.58;;
6143;SDS011;3103;49.492;8.474;2023-08-17T13:37:31;3.53;;;2.63;;
6143;SDS011;3103;49.492;8.474;2023-08-17T13:39:58;3.60;;;2.85;;
6143;SDS011;3103;49.492;8.474;2023-08-17T13:42:29;3.80;;;2.80;;
6143;SDS011;3103;49.492;8.474;2023-08-17T13:44:56;4.68;;;3.00;;
6143;SDS011;3103;49.492;8.474;2023-08-17T13:47:23;3.20;;;2.90;;
6143;SDS011;3103;49.492;8.474;2023-08-17T13:49:50;5.75;;;2.53;;
6143;SDS011;3103;49.492;8.474;2023-08-17T13:52:17;4.82;;;2.63;;
6143;SDS011;3103;49.492;8.474;2023-08-17T13:54:44;4.38;;;2.72;;
6143;SDS011;3103;49.492;8.474;2023-08-17T13:57:12;3.30;;;2.67;;
6143;SDS011;3103;49.492;8.474;2023-08-17T13:59:38;4.13;;;2.53;;
6143;SDS011;3103;49.492;8.474;2023-08-17T14:02:05;4.18;;;2.80;;
6143;SDS011;3103;49.492;8.474;2023-08-17T14:04:32;9.93;;;2.50;;
6143;SDS011;3103;49.492;8.474;2023-08-17T14:06:59;3.55;;;2.38;;
6143;SDS011;3103;49.492;8.474;2023-08-17T14:09:26;4.82;;;2.85;;
6143;SDS011;3103;49.492;8.474;2023-08-17T14:11:53;4.47;;;2.45;;
6143;SDS011;3103;49.492;8.474;2023-08-17T14:14:20;3.92;;;2.53;;
6143;SDS011;3103;49.492;8.474;2023-08-17T14:16:46;2.92;;;2.30;;
6143;SDS011;3103;49.492;8.474;2023-08-17T14:19:13;4.38;;;2.50;;
6143;SDS011;3103;49.492;8.474;2023-08-17T14:21:40;7.13;;;2.70;;
6143;SDS011;3103;49.492;8.474;2023-08-17T14:24:07;3.17;;;2.55;;
6143;SDS011;3103;49.492;8.474;2023-08-17T14:26:34;4.05;;;2.90;;
6143;SDS011;3103;49.492;8.474;2023-08-17T14:29:01;3.22;;;2.53;;
6143;SDS011;3103;49.492;8.474;2023-08-17T14:31:28;4.40;;;2.30;;
6143;SDS011;3103;49.492;8.474;2023-08-17T14:33:56;3.75;;;2.67;;
6143;SDS011;3103;49.492;8.474;2023-08-17T14:36:23;3.50;;;2.63;;
6143;SDS011;3103;49.492;8.474;2023-08-17T14:38:49;3.70;;;2.40;;
6143;SDS011;3103;49.492;8.474;2023-08-17T14:41:16;5.82;;;2.65;;
6143;SDS011;3103;49.492;8.474;2023-08-17T14:43:43;3.47;;;2.35;;
6143;SDS011;3103;49.492;8.474;2023-08-17T14:46:10;2.58;;;2.38;;
6143;SDS011;3103;49.492;8.474;2023-08-17T14:48:41;3.60;;;2.60;;
6143;SDS011;3103;49.492;8.474;2023-08-17T14:51:08;3.50;;;2.28;;
6143;SDS011;3103;49.492;8.474;2023-08-17T14:53:35;3.78;;;2.30;;
6143;SDS011;3103;49.492;8.474;2023-08-17T14:56:05;3.17;;;2.15;;
6143;SDS011;3103;49.492;8.474;2023-08-17T14:58:32;2.55;;;2.28;;
6143;SDS011;3103;49.492;8.474;2023-08-17T15:00:59;3.00;;;2.70;;
6143;SDS011;3103;49.492;8.474;2023-08-17T15:03:27;4.93;;;2.65;;
6143;SDS011;3103;49.492;8.474;2023-08-17T15:05:55;4.25;;;3.08;;
6143;SDS011;3103;49.492;8.474;2023-08-17T15:08:21;4.40;;;2.53;;
6143;SDS011;3103;49.492;8.474;2023-08-17T15:10:48;5.28;;;2.80;;
6143;SDS011;3103;49.492;8.474;2023-08-17T15:13:16;4.55;;;2.92;;
6143;SDS011;3103;49.492;8.474;2023-08-17T15:15:44;4.00;;;2.60;;
6143;SDS011;3103;49.492;8.474;2023-08-17T15:18:11;4.07;;;2.28;;
6143;SDS011;3103;49.492;8.474;2023-08-17T15:20:38;6.38;;;2.80;;
6143;SDS011;3103;49.492;8.474;2023-08-17T15:23:05;5.68;;;3.65;;
6143;SDS011;3103;49.492;8.474;2023-08-17T15:25:32;7.78;;;3.45;;